Time;durP1;ratioP1;P1;durP2;ratioP2;P2;SDS_P1;SDS_P2;PMS_P1;PMS_P2;Temp;Humidity;BMP_temperature;BMP_pressure;BME280_temperature;BME280_humidity;BME280_pressure;Samples;Min_cycle;Max_cycle;Signal;HPM_P1;HPM_P2
2021/10/26 00:01:30;;;;;;;12.37;9.37;;;;;;;;;;6092901;29;20197;-55
2021/10/26 00:04:50;;;;;;;10.87;9.77;;;;;;;;;;6091996;29;20264;-57
2021/10/26 00:08:11;;;;;;;10.87;9.77;;;;;;;;;;6096811;29;20598;-56
2021/10/26 00:11:31;;;;;;;12.03;11.03;;;;;;;;;;6092950;29;20220;-56
2021/10/26 00:14:54;;;;;;;13.67;12.43;;;;;;;;;;6095012;29;20236;-54
2021/10/26 00:18:16;;;;;;;15.07;13.27;;;;;;;;;;6094940;29;20229;-56
2021/10/26 00:21:37;;;;;;;15.57;13.80;;;;;;;;;;6095738;29;20200;-55
2021/10/26 00:24:58;;;;;;;15.20;13.80;;;;;;;;;;6094047;29;20237;-52
2021/10/26 00:28:18;;;;;;;17.23;15.43;;;;;;;;;;6094607;29;20244;-55
2021/10/26 00:31:41;;;;;;;17.80;16.10;;;;;;;;;;6092635;29;20228;-56
2021/10/26 00:35:03;;;;;;;18.20;16.30;;;;;;;;;;6095751;29;20229;-55
2021/10/26 00:38:24;;;;;;;18.93;17.03;;;;;;;;;;6098911;29;20240;-54
2021/10/26 00:41:45;;;;;;;19.47;17.67;;;;;;;;;;6101018;29;20209;-52
2021/10/26 00:45:06;;;;;;;19.50;17.43;;;;;;;;;;6095891;29;20224;-55
2021/10/26 00:48:26;;;;;;;17.73;16.03;;;;;;;;;;6100071;29;20228;-54
2021/10/26 00:51:49;;;;;;;19.43;17.43;;;;;;;;;;6094123;29;20217;-52
2021/10/26 00:55:09;;;;;;;20.87;18.27;;;;;;;;;;6094655;29;20673;-55
2021/10/26 00:58:32;;;;;;;20.40;17.63;;;;;;;;;;6093196;29;20456;-52
2021/10/26 01:01:52;;;;;;;20.57;18.37;;;;;;;;;;6094580;29;20327;-55
2021/10/26 01:05:16;;;;;;;19.90;17.93;;;;;;;;;;6102128;29;20232;-54
2021/10/26 01:08:38;;;;;;;19.93;18.13;;;;;;;;;;6086848;29;20240;-54
2021/10/26 01:11:58;;;;;;;21.97;19.77;;;;;;;;;;6090389;29;20209;-55
2021/10/26 01:15:19;;;;;;;19.43;17.47;;;;;;;;;;6081395;29;20264;-54
2021/10/26 01:18:40;;;;;;;18.10;16.20;;;;;;;;;;6089713;29;20316;-53
2021/10/26 01:22:03;;;;;;;19.00;17.13;;;;;;;;;;6095067;29;20217;-53
2021/10/26 01:25:24;;;;;;;16.00;14.30;;;;;;;;;;6072407;29;20233;-56
2021/10/26 01:28:44;;;;;;;17.30;15.53;;;;;;;;;;6082786;29;20323;-57
2021/10/26 01:32:06;;;;;;;17.17;15.53;;;;;;;;;;6102701;29;20217;-56
2021/10/26 01:35:31;;;;;;;17.67;15.87;;;;;;;;;;6086048;29;20229;-55
2021/10/26 01:38:53;;;;;;;18.57;15.47;;;;;;;;;;6097179;29;20239;-55
2021/10/26 01:42:13;;;;;;;18.10;16.17;;;;;;;;;;6094647;29;20217;-55
2021/10/26 01:45:33;;;;;;;18.10;16.40;;;;;;;;;;6101559;29;20598;-56
2021/10/26 01:49:06;;;;;;;19.20;16.97;;;;;;;;;;6100783;29;20236;-55
2021/10/26 01:52:27;;;;;;;17.13;15.33;;;;;;;;;;6081796;29;20225;-54
2021/10/26 01:55:49;;;;;;;19.27;17.33;;;;;;;;;;6097627;29;20192;-55
2021/10/26 01:59:10;;;;;;;18.43;16.57;;;;;;;;;;6099343;29;20600;-56
2021/10/26 02:02:36;;;;;;;19.37;17.47;;;;;;;;;;6084734;29;20208;-56
2021/10/26 02:05:56;;;;;;;18.40;16.27;;;;;;;;;;6084333;29;20224;-54
2021/10/26 02:09:17;;;;;;;18.73;16.80;;;;;;;;;;6103442;29;20237;-57
2021/10/26 02:12:39;;;;;;;21.03;18.87;;;;;;;;;;6092807;29;20320;-55
2021/10/26 02:16:00;;;;;;;20.83;18.77;;;;;;;;;;6092578;29;20227;-56
2021/10/26 02:19:20;;;;;;;20.80;17.90;;;;;;;;;;6089289;29;20228;-53
2021/10/26 02:22:41;;;;;;;21.40;19.37;;;;;;;;;;6096498;29;20410;-54
2021/10/26 02:26:04;;;;;;;23.20;20.77;;;;;;;;;;6105741;29;20389;-55
2021/10/26 02:29:27;;;;;;;20.47;18.47;;;;;;;;;;6095334;29;20237;-55
2021/10/26 02:32:53;;;;;;;23.43;20.97;;;;;;;;;;6093455;29;20323;-53
2021/10/26 02:36:13;;;;;;;26.47;22.53;;;;;;;;;;6096086;29;20204;-54
2021/10/26 02:39:34;;;;;;;24.83;22.33;;;;;;;;;;6090216;29;20635;-55
2021/10/26 02:42:55;;;;;;;27.03;24.23;;;;;;;;;;6078586;29;20233;-55
2021/10/26 02:46:17;;;;;;;26.57;23.67;;;;;;;;;;6094438;29;20193;-54
2021/10/26 02:49:38;;;;;;;26.30;23.20;;;;;;;;;;6090855;29;20229;-54
2021/10/26 02:52:59;;;;;;;27.23;24.33;;;;;;;;;;6073677;29;20634;-53
2021/10/26 02:56:20;;;;;;;26.37;23.50;;;;;;;;;;6095626;29;20520;-53
2021/10/26 02:59:41;;;;;;;27.50;24.03;;;;;;;;;;6092487;29;20229;-54
2021/10/26 03:03:03;;;;;;;27.87;24.97;;;;;;;;;;6092542;29;20233;-56
2021/10/26 03:06:24;;;;;;;29.10;26.07;;;;;;;;;;6096863;29;20229;-56
2021/10/26 03:09:46;;;;;;;28.00;25.10;;;;;;;;;;6095527;29;20237;-56
2021/10/26 03:13:07;;;;;;;28.03;25.13;;;;;;;;;;6095816;29;20259;-56
2021/10/26 03:16:27;;;;;;;31.47;26.23;;;;;;;;;;6104391;29;20214;-51
2021/10/26 03:19:49;;;;;;;28.37;25.27;;;;;;;;;;6099329;29;20619;-55
2021/10/26 03:23:10;;;;;;;28.33;25.40;;;;;;;;;;6088995;29;20233;-55
2021/10/26 03:26:31;;;;;;;28.93;25.67;;;;;;;;;;6099714;29;20567;-55
2021/10/26 03:29:52;;;;;;;27.97;25.10;;;;;;;;;;6095328;29;20728;-55
2021/10/26 03:33:13;;;;;;;27.23;24.50;;;;;;;;;;6098402;29;20298;-55
2021/10/26 03:36:43;;;;;;;27.70;24.73;;;;;;;;;;6100080;29;20206;-56
2021/10/26 03:40:05;;;;;;;29.03;26.20;;;;;;;;;;6093800;29;20241;-56
2021/10/26 03:43:26;;;;;;;27.77;24.83;;;;;;;;;;6094860;29;20953;-56
2021/10/26 03:46:47;;;;;;;29.70;25.93;;;;;;;;;;6103001;29;20209;-55
2021/10/26 03:50:09;;;;;;;28.70;25.77;;;;;;;;;;6097080;29;20358;-56
2021/10/26 03:53:32;;;;;;;28.17;25.47;;;;;;;;;;6089568;29;20237;-56
2021/10/26 03:56:52;;;;;;;27.40;24.50;;;;;;;;;;6097518;29;20224;-54
2021/10/26 04:00:13;;;;;;;29.43;26.23;;;;;;;;;;6092995;29;20236;-56
2021/10/26 04:03:47;;;;;;;28.77;25.57;;;;;;;;;;6093752;29;20331;-54
2021/10/26 04:07:09;;;;;;;27.63;24.83;;;;;;;;;;6085605;29;20213;-56
2021/10/26 04:10:42;;;;;;;29.93;26.77;;;;;;;;;;6094213;29;20229;-54
2021/10/26 04:14:03;;;;;;;27.60;24.70;;;;;;;;;;6094698;29;20246;-55
2021/10/26 04:17:25;;;;;;;26.80;24.03;;;;;;;;;;6093429;29;20205;-56
2021/10/26 04:20:46;;;;;;;26.37;23.67;;;;;;;;;;6102467;29;20244;-57
2021/10/26 04:24:07;;;;;;;26.27;23.73;;;;;;;;;;6097341;29;20665;-53
2021/10/26 04:27:29;;;;;;;29.13;23.93;;;;;;;;;;6094817;29;20209;-54
2021/10/26 04:30:49;;;;;;;26.07;23.47;;;;;;;;;;6094937;29;20205;-55
2021/10/26 04:34:13;;;;;;;29.07;23.73;;;;;;;;;;6098052;29;20240;-56
2021/10/26 04:37:35;;;;;;;26.90;23.87;;;;;;;;;;6097321;29;20221;-56
2021/10/26 04:40:58;;;;;;;29.13;25.87;;;;;;;;;;6090720;29;20208;-57
2021/10/26 04:44:23;;;;;;;28.37;25.63;;;;;;;;;;6093916;29;20255;-53
2021/10/26 04:47:45;;;;;;;26.97;24.07;;;;;;;;;;6092293;29;20256;-57
2021/10/26 04:51:05;;;;;;;29.40;26.40;;;;;;;;;;6090762;29;20280;-56
2021/10/26 04:54:26;;;;;;;29.23;26.17;;;;;;;;;;6093999;29;20237;-56
2021/10/26 04:57:56;;;;;;;28.67;24.60;;;;;;;;;;6098320;29;20819;-56
2021/10/26 05:01:20;;;;;;;26.67;23.90;;;;;;;;;;6089123;29;20256;-56
2021/10/26 05:04:41;;;;;;;28.80;25.73;;;;;;;;;;6098418;29;20380;-53
2021/10/26 05:08:02;;;;;;;32.03;25.00;;;;;;;;;;6091833;29;20619;-56
2021/10/26 05:11:23;;;;;;;31.10;27.83;;;;;;;;;;6080979;29;20216;-56
2021/10/26 05:14:44;;;;;;;29.73;26.03;;;;;;;;;;6081825;29;20244;-55
2021/10/26 05:18:26;;;;;;;30.20;27.07;;;;;;;;;;6091032;29;20240;-52
2021/10/26 05:22:27;;;;;;;27.07;24.27;;;;;;;;;;6002239;29;20215;-54
2021/10/26 05:25:56;;;;;;;30.10;25.90;;;;;;;;;;6025666;29;20969;-56
2021/10/26 05:29:27;;;;;;;31.20;28.10;;;;;;;;;;6094180;29;20262;-54
2021/10/26 05:32:47;;;;;;;29.47;26.27;;;;;;;;;;6099266;29;20244;-57
2021/10/26 05:36:09;;;;;;;31.33;28.17;;;;;;;;;;6092256;29;20200;-55
2021/10/26 05:39:29;;;;;;;34.03;30.40;;;;;;;;;;6094674;29;20232;-56
2021/10/26 05:42:50;;;;;;;30.83;27.50;;;;;;;;;;6095275;29;20252;-53
2021/10/26 05:46:12;;;;;;;30.70;27.53;;;;;;;;;;6094714;29;20320;-55
2021/10/26 05:49:33;;;;;;;33.27;29.63;;;;;;;;;;6095739;29;20241;-57
2021/10/26 05:52:55;;;;;;;30.80;27.67;;;;;;;;;;6088618;29;20232;-54
2021/10/26 05:56:15;;;;;;;31.67;28.33;;;;;;;;;;6096733;29;20714;-54
2021/10/26 05:59:36;;;;;;;30.33;27.23;;;;;;;;;;6095792;29;20225;-55
2021/10/26 06:02:56;;;;;;;30.93;27.70;;;;;;;;;;6093381;29;20249;-53
2021/10/26 06:06:18;;;;;;;33.97;30.33;;;;;;;;;;6095520;29;20587;-51
2021/10/26 06:09:40;;;;;;;29.70;25.23;;;;;;;;;;6091985;29;20338;-50
2021/10/26 06:13:05;;;;;;;32.47;27.10;;;;;;;;;;6098121;29;20240;-50
2021/10/26 06:16:26;;;;;;;31.83;28.40;;;;;;;;;;6094273;29;20232;-51
2021/10/26 06:19:46;;;;;;;31.67;28.43;;;;;;;;;;6096114;29;20237;-56
2021/10/26 06:23:07;;;;;;;31.70;28.27;;;;;;;;;;6092686;29;20233;-57
2021/10/26 06:26:30;;;;;;;34.13;28.70;;;;;;;;;;6095595;29;20249;-56
2021/10/26 06:30:00;;;;;;;31.87;27.73;;;;;;;;;;6098028;29;20236;-56
2021/10/26 06:33:34;;;;;;;37.83;30.30;;;;;;;;;;6096897;29;20225;-51
2021/10/26 06:37:04;;;;;;;33.37;29.83;;;;;;;;;;6091649;29;20200;-52
2021/10/26 06:40:25;;;;;;;31.03;27.77;;;;;;;;;;6103972;29;20221;-55
2021/10/26 06:44:07;;;;;;;32.33;28.90;;;;;;;;;;6099213;29;20229;-56
2021/10/26 06:47:36;;;;;;;35.30;29.43;;;;;;;;;;6104429;29;20205;-51
2021/10/26 06:51:16;;;;;;;33.77;30.37;;;;;;;;;;6100565;29;20389;-53
2021/10/26 06:55:08;;;;;;;31.23;28.03;;;;;;;;;;6097833;29;20328;-52
2021/10/26 06:58:48;;;;;;;31.87;28.23;;;;;;;;;;6102487;29;20236;-56
2021/10/26 07:02:49;;;;;;;30.77;27.37;;;;;;;;;;6101269;29;20249;-56
2021/10/26 07:06:28;;;;;;;31.43;28.30;;;;;;;;;;6103945;29;20197;-56
2021/10/26 07:09:51;;;;;;;32.80;29.50;;;;;;;;;;6097269;29;20263;-53
2021/10/26 07:13:26;;;;;;;34.77;31.00;;;;;;;;;;6101122;29;20335;-55
2021/10/26 07:16:47;;;;;;;32.03;28.70;;;;;;;;;;6100599;29;20543;-55
2021/10/26 07:20:13;;;;;;;32.60;29.03;;;;;;;;;;6083264;29;20232;-53
2021/10/26 07:23:52;;;;;;;32.20;29.10;;;;;;;;;;6105129;29;20822;-55
2021/10/26 07:27:32;;;;;;;33.33;29.80;;;;;;;;;;6096167;29;20507;-54
2021/10/26 07:30:53;;;;;;;32.67;29.40;;;;;;;;;;6099212;29;20517;-55
2021/10/26 07:34:13;;;;;;;32.37;29.07;;;;;;;;;;6102612;29;20236;-56
2021/10/26 07:37:39;;;;;;;32.43;29.07;;;;;;;;;;6102767;29;20193;-52
2021/10/26 07:41:05;;;;;;;32.53;29.13;;;;;;;;;;6106382;29;20591;-54
2021/10/26 07:44:45;;;;;;;30.33;27.17;;;;;;;;;;6105473;29;20634;-55
2021/10/26 07:48:32;;;;;;;31.30;28.10;;;;;;;;;;6096736;29;20233;-56
2021/10/26 07:51:53;;;;;;;31.20;28.07;;;;;;;;;;6084656;29;20221;-56
2021/10/26 07:55:15;;;;;;;35.33;26.97;;;;;;;;;;6060553;29;20569;-53
2021/10/26 07:58:38;;;;;;;29.90;26.67;;;;;;;;;;6107999;29;20233;-56
2021/10/26 08:01:59;;;;;;;30.90;27.63;;;;;;;;;;6084188;29;20201;-52
2021/10/26 08:05:55;;;;;;;28.73;25.13;;;;;;;;;;6099714;29;20232;-50
2021/10/26 08:09:18;;;;;;;27.70;24.93;;;;;;;;;;6083091;29;20224;-55
2021/10/26 08:12:40;;;;;;;26.07;23.50;;;;;;;;;;6096593;29;20284;-54
2021/10/26 08:16:01;;;;;;;27.80;24.40;;;;;;;;;;6098810;29;20251;-56
2021/10/26 08:19:21;;;;;;;29.97;25.30;;;;;;;;;;6096310;29;20316;-56
2021/10/26 08:22:44;;;;;;;27.77;24.93;;;;;;;;;;6095639;29;20331;-55
2021/10/26 08:26:07;;;;;;;30.20;24.80;;;;;;;;;;6102877;29;20275;-54
2021/10/26 08:29:44;;;;;;;27.67;24.50;;;;;;;;;;6095088;29;20621;-56
2021/10/26 08:33:18;;;;;;;26.40;23.77;;;;;;;;;;6096217;29;20240;-56
2021/10/26 08:36:39;;;;;;;26.27;23.43;;;;;;;;;;6096224;29;20204;-51
2021/10/26 08:40:00;;;;;;;23.47;21.27;;;;;;;;;;6095161;29;20316;-50
2021/10/26 08:43:22;;;;;;;25.60;22.97;;;;;;;;;;6097957;29;20233;-57
2021/10/26 08:46:44;;;;;;;25.07;21.43;;;;;;;;;;6103429;29;20562;-53
2021/10/26 08:50:05;;;;;;;24.50;21.83;;;;;;;;;;6085634;29;20232;-57
2021/10/26 08:53:34;;;;;;;25.33;22.93;;;;;;;;;;6099276;29;20652;-56
2021/10/26 08:57:13;;;;;;;26.60;22.10;;;;;;;;;;6361063;23;20199;-54
2021/10/26 09:01:08;;;;;;;25.17;21.93;;;;;;;;;;6064922;29;20233;-56
2021/10/26 09:04:37;;;;;;;46.03;23.57;;;;;;;;;;6071439;29;20234;-57
2021/10/26 09:08:01;;;;;;;24.57;22.13;;;;;;;;;;6070598;29;20229;-56
2021/10/26 09:11:26;;;;;;;24.43;21.43;;;;;;;;;;6070850;29;20201;-56
2021/10/26 09:19:08;;;;;;;23.83;21.37;;;;;;;;;;6071471;29;20233;-56
2021/10/26 09:22:46;;;;;;;24.80;22.40;;;;;;;;;;6077506;29;20695;-54
2021/10/26 09:26:07;;;;;;;24.87;22.43;;;;;;;;;;6072675;29;20451;-56
2021/10/26 09:29:41;;;;;;;21.63;19.40;;;;;;;;;;6065757;29;20263;-54
2021/10/26 09:33:02;;;;;;;20.10;18.20;;;;;;;;;;6072761;29;20506;-56
2021/10/26 09:36:24;;;;;;;19.83;18.03;;;;;;;;;;6073757;29;20222;-57
2021/10/26 09:39:56;;;;;;;22.03;18.13;;;;;;;;;;6069643;29;20237;-54
2021/10/26 09:43:17;;;;;;;22.67;18.50;;;;;;;;;;6075054;29;20225;-53
2021/10/26 09:46:40;;;;;;;22.17;19.90;;;;;;;;;;6071461;29;20275;-55
2021/10/26 09:50:01;;;;;;;19.77;17.33;;;;;;;;;;6068224;29;20842;-56
2021/10/26 09:53:32;;;;;;;21.83;19.53;;;;;;;;;;6064747;29;20619;-57
2021/10/26 09:57:03;;;;;;;18.77;16.87;;;;;;;;;;6073285;29;20277;-53
2021/10/26 10:00:26;;;;;;;17.00;15.13;;;;;;;;;;6062516;29;20233;-53
2021/10/26 10:03:59;;;;;;;16.67;14.73;;;;;;;;;;6069771;29;20237;-55
2021/10/26 10:07:27;;;;;;;15.60;14.03;;;;;;;;;;6071847;29;20217;-52
2021/10/26 10:10:48;;;;;;;16.53;14.80;;;;;;;;;;6077243;29;20232;-56
2021/10/26 10:14:11;;;;;;;15.27;13.67;;;;;;;;;;6076004;29;20233;-52
2021/10/26 10:17:31;;;;;;;16.93;15.30;;;;;;;;;;6068489;29;20206;-56
2021/10/26 10:20:53;;;;;;;18.90;16.87;;;;;;;;;;6070241;29;20217;-57
2021/10/26 10:24:14;;;;;;;18.80;16.03;;;;;;;;;;6078025;29;20236;-55
2021/10/26 10:27:35;;;;;;;19.40;17.37;;;;;;;;;;6077643;29;20225;-55
2021/10/26 10:30:58;;;;;;;18.87;16.77;;;;;;;;;;6079729;29;20217;-55
2021/10/26 10:34:19;;;;;;;22.00;14.13;;;;;;;;;;6071091;29;20240;-54
2021/10/26 10:37:41;;;;;;;13.03;11.57;;;;;;;;;;6079913;29;20224;-54
2021/10/26 10:41:21;;;;;;;13.00;11.40;;;;;;;;;;6071699;29;20213;-54
2021/10/26 10:44:43;;;;;;;12.97;10.37;;;;;;;;;;6077200;29;20229;-56
2021/10/26 10:48:25;;;;;;;13.70;10.57;;;;;;;;;;6077763;29;20236;-55
2021/10/26 10:51:52;;;;;;;11.50;9.43;;;;;;;;;;6078531;29;20213;-52
2021/10/26 10:55:21;;;;;;;11.93;10.73;;;;;;;;;;6077645;29;20228;-52
2021/10/26 10:58:42;;;;;;;12.70;11.03;;;;;;;;;;6066321;29;20240;-50
2021/10/26 11:02:17;;;;;;;14.10;12.27;;;;;;;;;;6069046;29;20237;-54
2021/10/26 11:05:42;;;;;;;13.13;11.77;;;;;;;;;;6075202;29;20225;-56
2021/10/26 11:09:02;;;;;;;14.63;13.27;;;;;;;;;;6075236;29;20233;-55
2021/10/26 11:12:29;;;;;;;13.60;12.40;;;;;;;;;;6070326;29;20572;-51
2021/10/26 11:15:51;;;;;;;15.03;12.17;;;;;;;;;;6071007;29;20612;-53
2021/10/26 11:19:31;;;;;;;15.77;11.90;;;;;;;;;;6067404;29;20237;-55
2021/10/26 11:22:54;;;;;;;12.23;10.87;;;;;;;;;;6073767;29;20240;-52
2021/10/26 11:26:16;;;;;;;14.83;12.33;;;;;;;;;;6072035;29;20525;-56
2021/10/26 11:29:37;;;;;;;13.87;12.53;;;;;;;;;;6069614;29;20327;-56
2021/10/26 11:33:12;;;;;;;14.30;12.83;;;;;;;;;;6070050;29;20237;-51
2021/10/26 11:36:34;;;;;;;16.20;14.53;;;;;;;;;;6073336;29;20221;-55
2021/10/26 11:40:05;;;;;;;17.03;14.10;;;;;;;;;;6072277;29;20241;-55
2021/10/26 11:43:26;;;;;;;15.70;14.20;;;;;;;;;;6061097;29;20623;-55
2021/10/26 11:46:47;;;;;;;15.37;13.77;;;;;;;;;;6075029;29;20654;-56
2021/10/26 11:50:08;;;;;;;15.50;14.10;;;;;;;;;;6075817;29;20237;-53
2021/10/26 11:53:29;;;;;;;14.63;13.27;;;;;;;;;;6069779;29;20233;-56
2021/10/26 11:56:52;;;;;;;14.67;13.17;;;;;;;;;;6074832;29;20209;-57
2021/10/26 12:00:16;;;;;;;13.27;11.97;;;;;;;;;;6070303;29;20233;-54
2021/10/26 12:03:37;;;;;;;15.03;13.53;;;;;;;;;;6069510;29;20241;-56
2021/10/26 12:07:00;;;;;;;14.80;13.50;;;;;;;;;;6070716;29;20213;-57
2021/10/26 12:10:23;;;;;;;14.77;13.13;;;;;;;;;;6062111;29;20229;-50
2021/10/26 12:13:46;;;;;;;15.37;13.90;;;;;;;;;;6070732;29;20480;-53
2021/10/26 12:17:15;;;;;;;14.47;13.10;;;;;;;;;;6075439;29;20479;-51
2021/10/26 12:20:36;;;;;;;14.20;12.80;;;;;;;;;;6064138;29;20232;-53
2021/10/26 12:23:59;;;;;;;13.00;11.73;;;;;;;;;;6068750;29;20954;-53
2021/10/26 12:27:24;;;;;;;15.73;12.73;;;;;;;;;;6066207;29;20206;-53
2021/10/26 12:30:47;;;;;;;14.50;12.23;;;;;;;;;;6079449;29;20264;-47
2021/10/26 12:34:08;;;;;;;14.30;12.57;;;;;;;;;;6073552;29;20241;-52
2021/10/26 12:37:31;;;;;;;15.73;12.10;;;;;;;;;;6081516;29;20216;-54
2021/10/26 12:40:52;;;;;;;13.93;11.37;;;;;;;;;;6073576;29;20197;-50
2021/10/26 12:44:17;;;;;;;13.80;12.43;;;;;;;;;;6071402;29;20225;-51
2021/10/26 12:47:56;;;;;;;16.07;13.30;;;;;;;;;;6071949;29;20201;-54
2021/10/26 12:51:19;;;;;;;18.37;14.13;;;;;;;;;;6074293;29;20233;-49
2021/10/26 12:54:40;;;;;;;14.93;13.47;;;;;;;;;;6069769;29;20241;-50
2021/10/26 12:58:01;;;;;;;16.20;14.40;;;;;;;;;;6072480;29;20233;-50
2021/10/26 13:01:29;;;;;;;13.33;11.90;;;;;;;;;;6071734;29;20209;-54
2021/10/26 13:05:02;;;;;;;15.60;12.63;;;;;;;;;;6072478;29;20236;-48
2021/10/26 13:08:23;;;;;;;15.43;12.20;;;;;;;;;;6062329;29;20261;-55
2021/10/26 13:11:43;;;;;;;15.73;14.07;;;;;;;;;;6081256;29;20499;-56
2021/10/26 13:15:05;;;;;;;17.90;14.10;;;;;;;;;;6072311;29;20587;-55
2021/10/26 13:18:26;;;;;;;17.33;14.80;;;;;;;;;;6071293;29;20233;-55
2021/10/26 13:21:48;;;;;;;15.37;13.70;;;;;;;;;;6074190;29;20257;-56
2021/10/26 13:25:09;;;;;;;16.67;14.90;;;;;;;;;;6075083;29;20338;-55
2021/10/26 13:28:32;;;;;;;16.93;15.03;;;;;;;;;;6073731;29;20233;-55
2021/10/26 13:31:52;;;;;;;16.20;14.63;;;;;;;;;;6070131;29;20513;-56
2021/10/26 13:35:13;;;;;;;16.57;15.07;;;;;;;;;;6070488;29;20228;-52
2021/10/26 13:38:35;;;;;;;16.20;14.60;;;;;;;;;;6074447;29;20233;-52
2021/10/26 13:41:57;;;;;;;17.87;14.83;;;;;;;;;;6072432;29;20221;-54
2021/10/26 13:45:17;;;;;;;15.50;13.97;;;;;;;;;;6071151;29;20236;-57
2021/10/26 13:48:38;;;;;;;16.13;14.60;;;;;;;;;;6077634;29;20509;-55
2021/10/26 13:51:59;;;;;;;16.93;13.50;;;;;;;;;;6072222;29;20205;-56
2021/10/26 13:55:21;;;;;;;15.43;13.77;;;;;;;;;;6065092;29;20235;-56
2021/10/26 13:58:41;;;;;;;16.63;13.90;;;;;;;;;;6071481;29;20230;-53
2021/10/26 14:02:01;;;;;;;15.43;13.87;;;;;;;;;;6059741;29;20595;-52
2021/10/26 14:05:22;;;;;;;13.93;12.53;;;;;;;;;;6043644;29;20321;-53
2021/10/26 14:08:45;;;;;;;15.43;13.00;;;;;;;;;;6071825;29;20316;-56
2021/10/26 14:12:07;;;;;;;14.40;12.97;;;;;;;;;;6070140;29;20213;-55
2021/10/26 14:15:28;;;;;;;14.37;12.97;;;;;;;;;;6071814;29;20225;-54
2021/10/26 14:18:48;;;;;;;12.47;11.27;;;;;;;;;;6070605;29;20245;-52
2021/10/26 14:22:09;;;;;;;14.27;12.20;;;;;;;;;;6073378;29;20202;-56
2021/10/26 14:25:29;;;;;;;16.17;12.50;;;;;;;;;;6065506;29;20225;-54
2021/10/26 14:28:51;;;;;;;14.07;10.73;;;;;;;;;;6065274;29;20241;-57
2021/10/26 14:32:11;;;;;;;19.20;13.43;;;;;;;;;;6073006;29;20241;-54
2021/10/26 14:35:37;;;;;;;16.87;11.47;;;;;;;;;;6071317;29;20611;-56
2021/10/26 14:39:05;;;;;;;10.90;8.90;;;;;;;;;;6062998;29;20234;-55
2021/10/26 14:53:40;;;;;;;12.47;8.30;;;;;;;;;;6069211;29;20229;-56
2021/10/26 14:57:01;;;;;;;15.33;10.40;;;;;;;;;;6078067;29;20209;-56
2021/10/26 15:00:21;;;;;;;12.07;8.70;;;;;;;;;;6065225;29;20233;-55
2021/10/26 15:03:43;;;;;;;8.83;8.00;;;;;;;;;;6032934;29;20229;-54
2021/10/26 15:07:04;;;;;;;14.50;10.50;;;;;;;;;;6051654;29;20938;-54
2021/10/26 15:10:34;;;;;;;12.80;10.03;;;;;;;;;;6053169;29;20252;-56
2021/10/26 15:13:55;;;;;;;15.93;9.23;;;;;;;;;;6074203;29;20240;-56
2021/10/26 15:17:16;;;;;;;11.97;9.30;;;;;;;;;;6073956;29;20210;-52
2021/10/26 15:20:41;;;;;;;14.97;9.83;;;;;;;;;;6072662;29;20300;-52
2021/10/26 15:35:24;;;;;;;10.30;8.33;;;;;;;;;;5986644;29;20229;-56
2021/10/26 15:38:46;;;;;;;17.27;10.23;;;;;;;;;;6081279;29;20240;-54
2021/10/26 15:42:08;;;;;;;14.23;8.33;;;;;;;;;;6074093;29;20237;-56
2021/10/26 15:45:28;;;;;;;10.97;8.97;;;;;;;;;;6075388;29;20281;-55
2021/10/26 15:48:49;;;;;;;12.50;9.23;;;;;;;;;;6075440;29;20234;-53
2021/10/26 15:52:09;;;;;;;15.00;11.33;;;;;;;;;;6073276;29;20192;-54
2021/10/26 15:55:32;;;;;;;17.20;10.80;;;;;;;;;;6062430;29;20225;-53
2021/10/26 15:58:52;;;;;;;15.07;9.10;;;;;;;;;;6067591;29;20229;-55
2021/10/26 16:02:13;;;;;;;18.43;11.93;;;;;;;;;;6072911;29;20205;-52
2021/10/26 16:05:34;;;;;;;12.37;8.43;;;;;;;;;;6068706;29;20233;-54
2021/10/26 16:08:55;;;;;;;13.27;9.43;;;;;;;;;;6079934;29;20238;-49
2021/10/26 16:12:21;;;;;;;11.67;9.33;;;;;;;;;;6073413;29;20213;-57
2021/10/26 16:15:47;;;;;;;14.00;9.43;;;;;;;;;;6069193;29;20316;-53
2021/10/26 16:19:09;;;;;;;13.27;8.90;;;;;;;;;;6072030;29;20233;-56
2021/10/26 16:22:30;;;;;;;15.63;10.83;;;;;;;;;;6067361;29;20209;-56
2021/10/26 16:25:51;;;;;;;12.37;10.27;;;;;;;;;;6059070;29;20201;-56
2021/10/26 16:29:13;;;;;;;16.13;10.27;;;;;;;;;;6069534;29;20224;-55
2021/10/26 16:32:34;;;;;;;12.60;9.20;;;;;;;;;;6068700;29;21154;-56
2021/10/26 16:35:55;;;;;;;15.40;10.27;;;;;;;;;;6074616;29;20202;-57
2021/10/26 16:39:16;;;;;;;10.00;8.57;;;;;;;;;;6067196;29;20537;-57
2021/10/26 16:42:40;;;;;;;13.50;8.47;;;;;;;;;;6072298;29;20206;-54
2021/10/26 16:46:15;;;;;;;10.77;8.70;;;;;;;;;;6067824;29;20194;-56
2021/10/26 16:49:36;;;;;;;13.63;8.53;;;;;;;;;;6060722;29;20236;-53
2021/10/26 16:52:56;;;;;;;14.97;8.70;;;;;;;;;;6074518;29;20519;-55
2021/10/26 16:56:17;;;;;;;13.13;8.27;;;;;;;;;;6075605;29;20201;-52
2021/10/26 16:59:37;;;;;;;12.17;8.60;;;;;;;;;;6076276;29;20722;-54
2021/10/26 17:02:59;;;;;;;12.37;8.17;;;;;;;;;;6075978;29;20746;-53
2021/10/26 17:06:20;;;;;;;12.60;8.43;;;;;;;;;;6063029;29;20206;-54
2021/10/26 17:09:42;;;;;;;12.03;8.10;;;;;;;;;;6072736;29;20233;-53
2021/10/26 17:13:03;;;;;;;15.23;9.53;;;;;;;;;;6064521;29;20225;-56
2021/10/26 17:16:24;;;;;;;10.63;8.20;;;;;;;;;;6064355;29;20197;-54
2021/10/26 17:19:46;;;;;;;11.47;7.03;;;;;;;;;;6064675;29;20241;-55
2021/10/26 17:23:06;;;;;;;11.13;8.33;;;;;;;;;;6077826;29;20273;-54
2021/10/26 17:26:52;;;;;;;18.03;8.60;;;;;;;;;;6070031;29;20241;-54
2021/10/26 17:30:44;;;;;;;12.63;7.73;;;;;;;;;;6039863;29;20605;-54
2021/10/26 17:34:05;;;;;;;10.83;7.80;;;;;;;;;;6068268;29;20260;-54
2021/10/26 17:37:28;;;;;;;9.40;7.87;;;;;;;;;;6069300;29;20221;-54
2021/10/26 17:41:00;;;;;;;11.13;8.73;;;;;;;;;;6070916;29;20249;-56
2021/10/26 17:44:21;;;;;;;10.47;7.00;;;;;;;;;;6070507;29;20229;-54
2021/10/26 17:47:43;;;;;;;10.03;7.77;;;;;;;;;;6071673;29;20939;-57
2021/10/26 17:51:05;;;;;;;11.73;7.13;;;;;;;;;;6074347;29;20233;-57
2021/10/26 17:54:27;;;;;;;9.87;7.20;;;;;;;;;;6071269;29;20233;-52
2021/10/26 17:57:47;;;;;;;10.00;7.13;;;;;;;;;;6067542;29;20234;-55
2021/10/26 18:01:09;;;;;;;10.17;6.73;;;;;;;;;;6066988;29;20292;-53
2021/10/26 18:04:30;;;;;;;8.03;7.17;;;;;;;;;;6059755;29;20478;-52
2021/10/26 18:07:50;;;;;;;8.93;7.87;;;;;;;;;;6070733;29;20606;-51
2021/10/26 18:11:13;;;;;;;8.70;7.87;;;;;;;;;;6071706;29;20222;-57
2021/10/26 18:14:33;;;;;;;9.73;7.57;;;;;;;;;;6073140;29;20233;-55
2021/10/26 18:17:54;;;;;;;12.27;7.67;;;;;;;;;;6062216;29;20701;-57
2021/10/26 18:21:14;;;;;;;14.57;10.03;;;;;;;;;;6059938;29;20201;-56
2021/10/26 18:24:37;;;;;;;12.90;8.63;;;;;;;;;;6060615;29;20232;-55
2021/10/26 18:27:59;;;;;;;14.30;10.43;;;;;;;;;;6070534;29;20193;-55
2021/10/26 18:31:20;;;;;;;10.07;8.70;;;;;;;;;;6047980;29;20229;-56
2021/10/26 18:34:40;;;;;;;13.70;9.23;;;;;;;;;;6072231;29;20257;-56
2021/10/26 18:38:05;;;;;;;24.93;11.43;;;;;;;;;;6067359;29;20713;-52
2021/10/26 18:41:27;;;;;;;16.83;11.00;;;;;;;;;;6048544;29;20214;-54
2021/10/26 18:44:52;;;;;;;16.67;11.60;;;;;;;;;;6051617;29;20237;-54
2021/10/26 18:48:14;;;;;;;14.87;11.40;;;;;;;;;;6041214;29;20255;-57
2021/10/26 18:51:34;;;;;;;14.40;11.63;;;;;;;;;;6048228;29;20201;-57
2021/10/26 18:54:55;;;;;;;13.50;10.60;;;;;;;;;;6054269;29;20241;-57
2021/10/26 18:58:16;;;;;;;14.00;12.53;;;;;;;;;;6055230;29;20241;-56
2021/10/26 19:01:37;;;;;;;14.87;13.27;;;;;;;;;;6043769;29;20213;-56
2021/10/26 19:04:58;;;;;;;16.43;13.10;;;;;;;;;;6042744;29;21884;-54
2021/10/26 19:08:20;;;;;;;20.43;13.60;;;;;;;;;;6054693;29;20241;-53
2021/10/26 19:11:40;;;;;;;15.33;13.37;;;;;;;;;;6064917;29;20225;-53
2021/10/26 19:15:01;;;;;;;15.40;12.63;;;;;;;;;;6065886;29;20781;-54
2021/10/26 19:18:23;;;;;;;16.30;12.97;;;;;;;;;;6062216;29;20249;-53
2021/10/26 19:21:44;;;;;;;18.00;13.57;;;;;;;;;;6050140;29;20230;-56
2021/10/26 19:25:06;;;;;;;17.70;13.33;;;;;;;;;;6043881;29;20233;-52
2021/10/26 19:28:26;;;;;;;14.90;12.83;;;;;;;;;;6052128;29;20226;-57
2021/10/26 19:31:46;;;;;;;23.63;12.77;;;;;;;;;;6045025;29;20233;-56
2021/10/26 19:35:09;;;;;;;13.40;12.00;;;;;;;;;;6037496;29;20226;-56
2021/10/26 19:38:30;;;;;;;15.03;12.67;;;;;;;;;;6044480;29;20306;-56
2021/10/26 19:41:51;;;;;;;16.17;14.43;;;;;;;;;;6044752;29;20347;-56
2021/10/26 19:45:12;;;;;;;18.67;14.73;;;;;;;;;;6047785;29;20248;-55
2021/10/26 19:48:33;;;;;;;15.63;14.00;;;;;;;;;;6057631;29;20261;-55
2021/10/26 19:51:55;;;;;;;16.77;14.30;;;;;;;;;;6065269;29;20992;-53
2021/10/26 19:55:15;;;;;;;17.97;15.13;;;;;;;;;;6053356;29;20237;-55
2021/10/26 20:42:41;;;;;;;18.83;13.40;;;;;;;;;;6065274;29;20237;-55
2021/10/26 20:46:02;;;;;;;13.97;12.63;;;;;;;;;;6068856;29;20225;-53
2021/10/26 20:49:25;;;;;;;15.30;13.80;;;;;;;;;;6067272;29;20221;-56
2021/10/26 20:52:46;;;;;;;13.90;12.50;;;;;;;;;;6076360;29;20205;-56
2021/10/26 20:56:07;;;;;;;17.20;12.50;;;;;;;;;;6071209;29;20477;-58
2021/10/26 20:59:29;;;;;;;15.60;13.07;;;;;;;;;;6065143;29;20225;-56